Time;durP1;ratioP1;P1;durP2;ratioP2;P2;SDS_P1;SDS_P2;PMS_P1;PMS_P2;Temp;Humidity;BMP_temperature;BMP_pressure;BME280_temperature;BME280_humidity;BME280_pressure;Samples;Min_cycle;Max_cycle;Signal;HPM_P1;HPM_P2
2023/08/29 00:01:00;;;;;;;7.03;3.85;;;;;;;20.71;79.14;98852.94;4891014;29;20047;-82
2023/08/29 00:03:45;;;;;;;6.72;3.60;;;;;;;20.76;79.33;98860.94;4888459;29;20511;-82
2023/08/29 00:06:30;;;;;;;6.20;3.55;;;;;;;21.04;78.77;98856.19;4883409;29;20047;-82
2023/08/29 00:09:14;;;;;;;4.68;3.65;;;;;;;20.87;79.06;98854.59;4886549;29;20407;-82
2023/08/29 00:11:58;;;;;;;5.93;3.65;;;;;;;21.16;78.70;98845.22;4889590;29;20096;-82
2023/08/29 00:14:42;;;;;;;5.20;3.47;;;;;;;21.08;78.81;98846.56;4888695;29;20519;-82
2023/08/29 00:17:26;;;;;;;6.80;3.75;;;;;;;21.08;78.58;98854.56;4886062;29;20423;-82
2023/08/29 00:20:10;;;;;;;6.28;4.05;;;;;;;21.16;78.23;98854.00;4888522;29;20066;-82
2023/08/29 00:22:55;;;;;;;6.53;3.90;;;;;;;20.96;78.07;98850.28;4886425;29;20101;-82
2023/08/29 00:25:39;;;;;;;6.10;3.97;;;;;;;21.13;78.17;98841.22;4883806;29;20123;-82
2023/08/29 00:28:24;;;;;;;6.60;4.15;;;;;;;21.29;77.41;98827.84;4890521;29;20043;-81
2023/08/29 00:31:09;;;;;;;6.15;4.20;;;;;;;21.34;77.43;98828.63;4887171;29;20100;-81
2023/08/29 00:33:54;;;;;;;8.65;4.72;;;;;;;21.09;77.97;98826.81;4886456;29;20133;-81
2023/08/29 00:36:38;;;;;;;6.13;4.53;;;;;;;21.14;77.76;98823.34;4885948;29;20093;-81
2023/08/29 00:39:23;;;;;;;8.63;5.28;;;;;;;21.34;77.95;98833.97;4887761;29;20048;-81
2023/08/29 00:42:08;;;;;;;7.78;4.82;;;;;;;21.34;77.84;98833.16;4886341;29;20124;-82
2023/08/29 00:44:52;;;;;;;5.70;4.32;;;;;;;21.20;78.29;98817.69;4888666;29;20075;-81
2023/08/29 00:47:37;;;;;;;12.70;5.20;;;;;;;20.97;78.45;98814.53;4886641;29;20056;-82
2023/08/29 00:50:22;;;;;;;7.18;5.07;;;;;;;20.82;79.20;98826.03;4888031;29;20044;-82
2023/08/29 00:53:08;;;;;;;8.13;5.30;;;;;;;20.95;78.89;98827.34;4892141;29;20415;-82
2023/08/29 00:55:52;;;;;;;8.82;4.43;;;;;;;21.03;78.55;98827.88;4888948;29;20051;-81
2023/08/29 00:58:36;;;;;;;9.75;5.90;;;;;;;21.02;79.00;98826.28;4889643;29;20043;-82
2023/08/29 01:01:21;;;;;;;14.90;6.82;;;;;;;20.96;79.07;98812.16;4889037;29;20176;-82
2023/08/29 01:04:09;;;;;;;7.93;5.60;;;;;;;21.29;78.29;98822.50;4885446;29;20048;-81
2023/08/29 01:06:55;;;;;;;8.52;6.32;;;;;;;21.08;78.91;98812.66;4888602;29;20089;-82
2023/08/29 01:09:39;;;;;;;7.90;6.65;;;;;;;21.06;79.09;98814.00;4887887;29;20503;-81
2023/08/29 01:12:37;;;;;;;11.95;7.10;;;;;;;21.10;79.01;98817.72;4890183;29;20407;-81
2023/08/29 01:15:27;;;;;;;11.40;6.63;;;;;;;21.19;78.85;98834.00;4889283;29;20136;-81
2023/08/29 01:18:13;;;;;;;11.48;7.55;;;;;;;20.94;79.69;98831.09;4889753;29;20517;-82
2023/08/29 01:21:03;;;;;;;12.32;7.97;;;;;;;21.14;79.16;98837.47;4887739;29;20089;-82
2023/08/29 01:23:57;;;;;;;10.82;7.70;;;;;;;21.31;78.92;98823.81;4888403;29;20108;-82
2023/08/29 01:26:44;;;;;;;12.07;7.80;;;;;;;21.02;79.22;98826.28;4890791;29;20105;-82
2023/08/29 01:29:32;;;;;;;15.45;9.57;;;;;;;20.88;79.67;98820.69;4883682;29;20063;-81
2023/08/29 01:32:17;;;;;;;13.13;8.02;;;;;;;21.10;79.19;98812.41;4888743;29;20144;-81
2023/08/29 01:35:02;;;;;;;11.43;7.57;;;;;;;21.34;78.55;98819.81;4887615;29;20097;-82
2023/08/29 01:37:46;;;;;;;12.95;7.82;;;;;;;21.25;79.09;98817.72;4889528;29;20048;-81
2023/08/29 01:40:30;;;;;;;11.25;7.97;;;;;;;21.33;78.62;98821.69;4891880;29;20051;-82
2023/08/29 01:43:14;;;;;;;15.48;10.10;;;;;;;21.06;79.18;98808.69;4891701;29;20046;-81
2023/08/29 01:45:58;;;;;;;;;;;;;;;20.74;80.17;98821.22;4891682;29;20063;-82
2023/08/29 01:48:42;;;;;;;15.23;10.25;;;;;;;21.08;79.57;98809.97;4892306;29;20299;-82
2023/08/29 01:51:26;;;;;;;19.05;11.77;;;;;;;21.01;79.43;98819.34;4887835;29;20148;-82
2023/08/29 01:54:11;;;;;;;13.65;9.95;;;;;;;20.78;79.95;98806.28;4889954;29;20064;-82
2023/08/29 01:56:57;;;;;;;16.98;10.32;;;;;;;20.99;79.46;98798.28;4888817;29;20105;-82
2023/08/29 01:59:44;;;;;;;12.98;8.65;;;;;;;20.99;79.41;98800.94;4886982;29;20039;-81
2023/08/29 02:02:29;;;;;;;15.05;9.50;;;;;;;20.85;79.70;98795.38;4884975;29;20524;-81
2023/08/29 02:05:12;;;;;;;14.75;10.05;;;;;;;21.06;79.75;98790.00;4887619;29;20096;-81
2023/08/29 02:07:56;;;;;;;10.55;8.88;;;;;;;21.14;79.07;98792.09;4886085;29;20133;-82
2023/08/29 02:10:40;;;;;;;12.18;8.52;;;;;;;21.10;78.69;98783.81;4889921;29;20044;-82
2023/08/29 02:13:24;;;;;;;12.10;7.85;;;;;;;20.93;79.13;98784.13;4888521;29;20107;-81
2023/08/29 02:16:08;;;;;;;11.10;7.88;;;;;;;20.95;78.88;98781.22;4888188;29;20108;-82
2023/08/29 02:18:52;;;;;;;9.73;7.55;;;;;;;21.01;78.72;98779.31;4889405;29;20121;-82
2023/08/29 02:21:36;;;;;;;13.52;7.07;;;;;;;20.97;78.81;98781.75;4889775;29;20467;-82
2023/08/29 02:24:21;;;;;;;8.85;6.53;;;;;;;21.06;78.73;98779.31;4887887;29;20071;-82
2023/08/29 02:27:05;;;;;;;11.63;5.97;;;;;;;20.98;78.94;98776.13;4882894;29;20048;-82
2023/08/29 02:29:50;;;;;;;10.27;6.32;;;;;;;20.83;78.66;98779.63;4883078;29;20077;-82
2023/08/29 02:32:34;;;;;;;6.90;5.80;;;;;;;21.00;78.50;98785.72;4888266;29;20805;-81
2023/08/29 02:35:18;;;;;;;9.55;5.55;;;;;;;20.92;78.60;98779.88;4887539;29;20100;-81
2023/08/29 02:38:02;;;;;;;9.40;5.28;;;;;;;20.92;78.76;98782.53;4886394;29;20078;-82
2023/08/29 02:40:47;;;;;;;9.88;5.25;;;;;;;21.07;78.10;98775.59;4890221;29;20135;-82
2023/08/29 02:43:31;;;;;;;7.40;4.43;;;;;;;20.85;78.31;98779.34;4892768;29;20100;-82
2023/08/29 02:46:15;;;;;;;6.22;4.40;;;;;;;20.90;78.06;98768.66;4887311;29;20059;-81
2023/08/29 02:48:59;;;;;;;6.15;4.25;;;;;;;20.99;77.58;98771.59;4887547;29;20048;-82
2023/08/29 02:51:43;;;;;;;9.38;4.03;;;;;;;20.85;77.48;98758.03;4887567;29;20092;-81
2023/08/29 02:54:27;;;;;;;5.68;3.63;;;;;;;20.89;77.21;98764.41;4889820;29;20452;-81
2023/08/29 02:57:11;;;;;;;7.28;3.58;;;;;;;20.93;77.00;98762.78;4888870;29;20035;-82
2023/08/29 02:59:55;;;;;;;5.80;3.30;;;;;;;21.02;76.83;98754.22;4887883;29;20096;-81
2023/08/29 03:02:39;;;;;;;5.90;3.78;;;;;;;21.01;76.20;98752.63;4884312;29;20407;-82
2023/08/29 03:05:23;;;;;;;5.03;3.45;;;;;;;20.93;76.22;98743.31;4888036;29;20508;-81
2023/08/29 03:08:07;;;;;;;5.90;3.95;;;;;;;20.95;76.28;98747.31;4885672;29;20040;-82
2023/08/29 03:10:52;;;;;;;6.07;3.63;;;;;;;21.04;76.12;98744.88;4890441;29;20415;-82
2023/08/29 03:13:36;;;;;;;6.22;3.60;;;;;;;20.89;76.00;98750.25;4885856;29;20411;-82
2023/08/29 03:16:20;;;;;;;;;;;;;;;20.75;76.32;98748.13;4882267;29;20078;-82
2023/08/29 03:19:04;;;;;;;7.68;3.60;;;;;;;20.68;76.35;98743.06;4885408;29;19970;-81
2023/08/29 03:21:48;;;;;;;6.75;3.42;;;;;;;20.82;76.10;98742.53;4891114;29;20056;-82
2023/08/29 03:24:32;;;;;;;7.07;3.38;;;;;;;20.77;76.25;98738.00;4891527;29;20056;-81
2023/08/29 03:27:16;;;;;;;6.80;3.53;;;;;;;20.88;76.27;98738.81;4882953;29;20467;-82
2023/08/29 03:30:00;;;;;;;4.53;2.72;;;;;;;20.89;76.11;98743.06;4888860;29;20047;-81
2023/08/29 03:32:49;;;;;;;5.35;3.47;;;;;;;20.88;76.51;98736.13;4885862;29;20080;-81
2023/08/29 03:35:33;;;;;;;6.28;3.70;;;;;;;20.98;76.00;98730.75;4889441;29;20038;-81
2023/08/29 03:38:17;;;;;;;7.25;3.70;;;;;;;21.08;76.03;98735.25;4885516;29;20055;-81
2023/08/29 03:41:02;;;;;;;6.70;3.35;;;;;;;21.05;75.95;98735.03;4890331;29;20530;-82
2023/08/29 03:43:46;;;;;;;7.28;3.72;;;;;;;21.02;76.16;98735.56;4884312;29;20055;-81
2023/08/29 03:46:30;;;;;;;6.43;3.40;;;;;;;21.03;76.06;98729.94;4887745;29;20095;-82
2023/08/29 03:49:14;;;;;;;8.32;3.65;;;;;;;21.02;75.83;98728.34;4884896;29;20121;-81
2023/08/29 03:51:58;;;;;;;9.70;3.70;;;;;;;21.00;76.54;98732.34;4886038;29;20108;-81
2023/08/29 03:54:42;;;;;;;7.68;4.53;;;;;;;21.02;76.75;98722.22;4883828;29;20514;-82
2023/08/29 03:57:28;;;;;;;5.85;3.45;;;;;;;21.06;77.44;98725.94;4891739;29;20621;-82
2023/08/29 04:00:14;;;;;;;6.55;4.25;;;;;;;21.13;76.54;98715.78;4885770;29;20046;-82
2023/08/29 04:03:02;;;;;;;5.13;3.80;;;;;;;21.04;76.83;98722.75;4883447;29;20044;-82
2023/08/29 04:05:46;;;;;;;6.03;4.13;;;;;;;21.03;76.99;98727.28;4882207;29;20139;-81
2023/08/29 04:08:30;;;;;;;6.03;4.10;;;;;;;20.95;77.35;98715.28;4887767;29;20412;-82
2023/08/29 04:11:14;;;;;;;5.47;4.00;;;;;;;21.06;76.83;98715.28;4887378;29;20051;-82
2023/08/29 04:13:59;;;;;;;7.13;3.95;;;;;;;21.08;77.26;98719.25;4885647;29;20044;-83
2023/08/29 04:16:44;;;;;;;6.07;4.10;;;;;;;21.09;77.12;98710.19;4884481;29;21779;-81
2023/08/29 04:19:29;;;;;;;5.72;4.25;;;;;;;21.04;76.83;98707.53;4887442;29;20066;-81
2023/08/29 04:22:15;;;;;;;6.00;4.05;;;;;;;21.08;76.97;98702.47;4884176;29;20128;-81
2023/08/29 04:24:59;;;;;;;5.32;3.33;;;;;;;21.02;77.24;98703.53;4884161;29;20056;-82
2023/08/29 04:27:44;;;;;;;4.72;3.70;;;;;;;20.93;77.01;98704.09;4881838;29;20071;-82
2023/08/29 04:30:28;;;;;;;7.60;3.80;;;;;;;20.89;77.79;98704.91;4884344;29;20055;-82
2023/08/29 04:33:12;;;;;;;5.75;3.95;;;;;;;20.97;77.16;98699.81;4884340;29;20145;-82
2023/08/29 04:35:59;;;;;;;7.90;4.18;;;;;;;21.00;77.46;98705.69;4886993;29;20052;-81
2023/08/29 04:38:45;;;;;;;7.63;4.05;;;;;;;20.99;77.49;98704.91;4887147;29;20604;-82
2023/08/29 04:41:29;;;;;;;9.25;4.07;;;;;;;20.96;77.46;98690.22;4885598;29;20071;-82
2023/08/29 04:44:13;;;;;;;5.00;3.47;;;;;;;21.07;77.38;98692.88;4888591;29;20468;-81
2023/08/29 04:46:57;;;;;;;7.63;3.67;;;;;;;21.12;77.22;98698.94;4884452;29;20407;-81
2023/08/29 04:49:41;;;;;;;4.85;3.55;;;;;;;21.09;77.45;98701.38;4886197;29;20111;-82
2023/08/29 04:52:26;;;;;;;;;;;;;;;21.15;77.58;98694.94;4887222;29;20055;-82
2023/08/29 04:55:10;;;;;;;4.97;3.40;;;;;;;21.21;77.16;98696.53;4889826;29;19921;-82
2023/08/29 04:57:56;;;;;;;6.00;3.33;;;;;;;21.17;76.89;98684.81;4886590;29;20088;-82
2023/08/29 05:00:40;;;;;;;8.35;3.60;;;;;;;21.31;76.90;98695.69;4884792;29;20100;-82
2023/08/29 05:03:24;;;;;;;6.53;3.90;;;;;;;21.16;77.25;98687.75;4885237;29;20064;-82
2023/08/29 05:06:08;;;;;;;3.72;3.05;;;;;;;20.92;77.33;98681.16;4885614;29;20140;-81
2023/08/29 05:08:52;;;;;;;8.80;3.50;;;;;;;21.20;77.17;98684.25;4885477;29;20092;-81
2023/08/29 05:11:36;;;;;;;4.88;3.08;;;;;;;21.26;77.03;98677.84;4887304;29;20131;-81
2023/08/29 05:14:20;;;;;;;6.50;3.50;;;;;;;21.40;76.81;98679.88;4884972;29;20518;-81
2023/08/29 05:17:05;;;;;;;5.72;3.20;;;;;;;21.24;76.79;98671.97;4890373;29;20048;-82
2023/08/29 05:19:51;;;;;;;6.03;3.83;;;;;;;21.10;77.26;98674.41;4888011;29;20093;-81
2023/08/29 05:22:34;;;;;;;5.90;3.65;;;;;;;21.17;77.31;98674.13;4884704;29;20048;-82
2023/08/29 05:25:18;;;;;;;4.13;3.35;;;;;;;21.17;77.01;98668.00;4886624;29;20114;-82
2023/08/29 05:28:02;;;;;;;5.53;3.70;;;;;;;21.06;77.77;98683.25;4887080;29;20047;-81
2023/08/29 05:30:47;;;;;;;7.68;4.45;;;;;;;20.86;78.31;98682.25;4884535;29;20140;-81
2023/08/29 05:33:31;;;;;;;7.45;4.07;;;;;;;20.86;77.95;98684.13;4887658;29;20044;-81
2023/08/29 05:36:15;;;;;;;6.82;4.13;;;;;;;20.97;77.92;98681.13;4890352;29;20096;-81
2023/08/29 05:38:59;;;;;;;8.30;4.25;;;;;;;21.08;77.97;98665.88;4888285;29;20495;-81
2023/08/29 05:41:43;;;;;;;6.40;4.43;;;;;;;21.11;77.68;98669.88;4890996;29;20524;-82
2023/08/29 05:44:27;;;;;;;8.07;3.85;;;;;;;21.22;77.68;98671.47;4888897;29;20165;-81
2023/08/29 05:47:12;;;;;;;6.90;4.20;;;;;;;21.02;77.86;98669.66;4888624;29;20048;-81
2023/08/29 05:49:57;;;;;;;6.10;4.03;;;;;;;21.23;77.90;98667.72;4888416;29;20097;-81
2023/08/29 05:52:41;;;;;;;6.28;4.13;;;;;;;21.15;77.85;98664.81;4889390;29;20040;-81
2023/08/29 05:55:25;;;;;;;7.07;4.50;;;;;;;21.19;77.83;98671.19;4889574;29;20044;-82
2023/08/29 05:58:09;;;;;;;7.82;4.55;;;;;;;21.25;77.79;98668.22;4896148;29;20108;-81
2023/08/29 06:00:55;;;;;;;9.23;4.90;;;;;;;21.19;78.00;98661.31;4890791;29;20047;-81
2023/08/29 06:03:39;;;;;;;7.97;4.32;;;;;;;21.48;77.04;98660.63;4890950;29;20106;-81
2023/08/29 06:06:22;;;;;;;7.85;4.38;;;;;;;21.54;77.17;98662.19;4891959;29;20044;-81
2023/08/29 06:09:12;;;;;;;7.00;4.38;;;;;;;21.39;77.63;98670.28;4890127;29;20059;-81
2023/08/29 06:11:56;;;;;;;8.57;5.93;;;;;;;21.43;77.72;98665.19;4883454;29;20055;-82
2023/08/29 06:14:40;;;;;;;;;;;;;;;21.39;77.76;98671.09;4892118;29;20436;-82
2023/08/29 06:17:24;;;;;;;7.38;4.82;;;;;;;21.55;77.13;98679.81;4889329;29;20043;-81
2023/08/29 06:20:09;;;;;;;7.22;5.25;;;;;;;21.47;77.47;98683.06;4886656;29;22514;-82
2023/08/29 06:22:56;;;;;;;8.98;5.20;;;;;;;21.68;77.54;98683.75;4888878;29;20096;-81
2023/08/29 06:25:41;;;;;;;7.05;5.70;;;;;;;21.65;77.40;98678.19;4890329;29;20113;-81
2023/08/29 06:28:25;;;;;;;6.57;4.93;;;;;;;21.74;77.07;98670.41;4892315;29;20149;-81
2023/08/29 06:31:09;;;;;;;7.60;5.47;;;;;;;21.58;77.19;98669.66;4888603;29;20040;-82
2023/08/29 06:33:53;;;;;;;10.38;5.47;;;;;;;21.63;77.33;98670.41;4890355;29;20440;-81
2023/08/29 06:36:38;;;;;;;7.63;6.22;;;;;;;21.58;77.46;98664.31;4889216;29;20055;-82
2023/08/29 06:39:23;;;;;;;6.88;5.82;;;;;;;21.81;77.25;98666.34;4889856;29;20048;-81
2023/08/29 06:42:06;;;;;;;6.80;5.53;;;;;;;21.99;76.90;98677.41;4888255;29;20055;-82
2023/08/29 06:44:51;;;;;;;10.50;5.95;;;;;;;21.93;77.15;98674.00;4887378;29;20105;-82
2023/08/29 06:47:36;;;;;;;6.72;5.38;;;;;;;21.86;76.68;98676.16;4884412;29;20514;-82
2023/08/29 06:50:19;;;;;;;9.07;5.75;;;;;;;21.92;77.00;98679.59;4891079;29;20056;-81
2023/08/29 06:53:04;;;;;;;6.45;5.10;;;;;;;22.18;76.81;98684.75;4883606;29;20193;-81
2023/08/29 06:55:49;;;;;;;6.82;5.75;;;;;;;22.25;76.37;98679.91;4889247;29;20044;-82
2023/08/29 06:58:38;;;;;;;8.93;5.97;;;;;;;22.27;76.58;98675.06;4889774;29;20510;-82
2023/08/29 07:01:22;;;;;;;6.22;5.57;;;;;;;22.41;76.45;98677.88;4888845;29;20511;-81
2023/08/29 07:04:08;;;;;;;7.93;5.18;;;;;;;22.47;76.05;98671.41;4886544;29;20051;-82
2023/08/29 07:06:52;;;;;;;7.35;5.97;;;;;;;22.57;75.38;98672.41;4888485;29;20075;-81
2023/08/29 07:09:36;;;;;;;7.80;6.07;;;;;;;22.71;75.79;98675.19;4887068;29;20176;-82
2023/08/29 07:12:20;;;;;;;8.13;5.68;;;;;;;22.96;75.29;98666.88;4887362;29;20048;-82
2023/08/29 07:15:05;;;;;;;10.32;6.35;;;;;;;23.07;74.47;98661.41;4889249;29;20529;-82
2023/08/29 07:17:49;;;;;;;11.05;6.65;;;;;;;23.12;74.68;98658.66;4886863;29;20051;-82
2023/08/29 07:20:33;;;;;;;6.25;5.00;;;;;;;23.35;73.88;98653.56;4890678;29;20092;-82
2023/08/29 07:23:18;;;;;;;9.25;6.10;;;;;;;23.54;73.78;98646.34;4888620;29;20121;-82
2023/08/29 07:26:02;;;;;;;6.82;5.53;;;;;;;23.58;73.23;98648.44;4884920;29;20181;-82
2023/08/29 07:28:46;;;;;;;6.18;5.40;;;;;;;23.92;72.66;98658.09;4885915;29;20048;-82
2023/08/29 07:31:32;;;;;;;7.60;5.32;;;;;;;24.03;72.44;98656.09;4885194;29;20063;-82
2023/08/29 07:34:16;;;;;;;8.07;5.43;;;;;;;24.08;72.12;98656.81;4884964;29;20079;-81
2023/08/29 07:37:00;;;;;;;;;;;;;;;24.20;71.74;98647.50;4882472;29;20043;-82
2023/08/29 07:39:44;;;;;;;9.68;6.45;;;;;;;23.99;72.31;98647.00;4889745;29;19923;-82
2023/08/29 07:42:28;;;;;;;7.13;5.88;;;;;;;23.94;72.62;98653.25;4885113;29;20099;-82
2023/08/29 07:45:12;;;;;;;8.90;6.22;;;;;;;23.90;72.38;98649.56;4885785;29;20099;-82
2023/08/29 07:47:56;;;;;;;8.18;6.40;;;;;;;23.92;72.46;98658.91;4881677;29;20111;-82
2023/08/29 07:50:40;;;;;;;11.00;6.30;;;;;;;23.87;73.05;98661.66;4888205;29;20047;-82
2023/08/29 07:53:24;;;;;;;8.00;6.65;;;;;;;23.93;73.13;98660.50;4885919;29;20051;-81
2023/08/29 07:56:08;;;;;;;8.93;6.70;;;;;;;24.22;72.67;98648.00;4884110;29;20043;-82
2023/08/29 07:58:52;;;;;;;10.93;7.28;;;;;;;24.48;72.27;98642.97;4886171;29;20494;-82
2023/08/29 08:01:36;;;;;;;12.88;8.02;;;;;;;24.57;71.89;98651.13;4885728;29;20052;-82
2023/08/29 08:04:22;;;;;;;10.38;8.35;;;;;;;24.72;71.24;98642.00;4886091;29;20417;-81
2023/08/29 08:07:06;;;;;;;8.60;7.35;;;;;;;25.01;71.14;98640.91;4887698;29;20121;-82
2023/08/29 08:09:50;;;;;;;8.43;7.20;;;;;;;25.05;70.96;98633.03;4890185;29;20593;-83
2023/08/29 08:12:35;;;;;;;9.77;7.25;;;;;;;25.00;70.95;98636.63;4886703;29;20051;-83
2023/08/29 08:15:20;;;;;;;8.90;6.47;;;;;;;24.72;71.51;98633.13;4890210;29;20502;-82
2023/08/29 08:18:04;;;;;;;7.20;6.50;;;;;;;24.68;72.10;98630.28;4888988;29;20096;-82
2023/08/29 08:20:48;;;;;;;8.52;6.88;;;;;;;24.55;72.28;98631.06;4886891;29;20046;-82
2023/08/29 08:23:32;;;;;;;11.38;8.18;;;;;;;24.60;72.45;98637.13;4886064;29;20132;-82
2023/08/29 08:26:16;;;;;;;9.20;8.20;;;;;;;24.83;72.61;98623.03;4884598;29;20104;-82
2023/08/29 08:29:03;;;;;;;12.13;9.77;;;;;;;25.18;71.05;98624.19;4884361;29;20191;-82
2023/08/29 08:31:48;;;;;;;14.98;10.90;;;;;;;24.85;71.08;98628.88;4889906;29;20068;-82
2023/08/29 08:34:32;;;;;;;12.30;10.20;;;;;;;25.00;70.84;98625.09;4883638;29;20052;-82
2023/08/29 08:37:16;;;;;;;12.35;10.65;;;;;;;24.79;70.14;98622.84;4881931;29;20149;-81
2023/08/29 08:40:01;;;;;;;11.50;10.30;;;;;;;24.95;69.93;98621.41;4891219;29;20043;-82
2023/08/29 08:42:45;;;;;;;13.32;9.15;;;;;;;25.02;70.16;98630.97;4885087;29;20047;-82
2023/08/29 08:45:29;;;;;;;10.65;9.55;;;;;;;25.18;70.04;98629.56;4884561;29;20092;-82
2023/08/29 08:48:15;;;;;;;21.65;9.68;;;;;;;24.91;70.24;98628.47;4889712;29;20056;-83
2023/08/29 08:51:00;;;;;;;9.43;8.48;;;;;;;24.75;70.59;98619.94;4884808;29;20055;-81
2023/08/29 08:53:45;;;;;;;10.02;8.40;;;;;;;24.43;70.72;98624.28;4887668;29;20047;-82
2023/08/29 08:56:29;;;;;;;9.93;8.25;;;;;;;24.55;71.14;98615.75;4882296;29;20063;-82
2023/08/29 08:59:15;;;;;;;9.02;7.75;;;;;;;24.37;71.24;98610.19;4886450;29;20404;-82
2023/08/29 09:01:59;;;;;;;11.13;8.13;;;;;;;24.37;71.45;98615.56;4884413;29;20503;-82
2023/08/29 09:04:44;;;;;;;9.48;7.50;;;;;;;24.16;71.80;98619.66;4885961;29;20124;-82
2023/08/29 09:07:29;;;;;;;9.75;8.50;;;;;;;24.10;72.80;98611.72;4884827;29;20510;-82
2023/08/29 09:10:19;;;;;;;11.55;9.52;;;;;;;23.90;72.99;98618.22;4884735;29;20079;-82
2023/08/29 09:13:03;;;;;;;10.55;8.93;;;;;;;23.64;73.60;98607.09;4890581;29;20040;-82
2023/08/29 09:15:48;;;;;;;10.60;8.73;;;;;;;23.99;72.24;98602.25;4891826;29;20099;-83
2023/08/29 09:18:32;;;;;;;10.45;8.60;;;;;;;23.66;72.97;98607.59;4891261;29;20055;-82
2023/08/29 09:21:17;;;;;;;13.55;9.77;;;;;;;24.13;71.75;98593.47;4890954;29;20048;-82
2023/08/29 09:24:01;;;;;;;15.57;9.80;;;;;;;24.57;70.72;98597.47;4888282;29;20052;-82
2023/08/29 09:26:45;;;;;;;11.73;9.73;;;;;;;24.67;69.95;98591.13;4889624;29;20055;-82
2023/08/29 09:29:30;;;;;;;14.80;9.88;;;;;;;24.42;69.95;98581.69;4886645;29;20043;-82
2023/08/29 09:32:15;;;;;;;12.13;9.90;;;;;;;25.06;69.44;98578.25;4892125;29;20083;-82
2023/08/29 09:34:59;;;;;;;10.88;9.55;;;;;;;25.22;68.67;98573.31;4886130;29;20051;-83
2023/08/29 09:37:50;;;;;;;12.45;10.00;;;;;;;25.58;66.91;98572.50;4889016;29;20146;-82
2023/08/29 09:40:48;;;;;;;12.18;10.15;;;;;;;24.94;68.06;98571.50;4888542;29;20511;-82
2023/08/29 09:43:32;;;;;;;11.75;10.05;;;;;;;25.10;68.75;98565.78;4887078;29;20047;-82
2023/08/29 09:46:26;;;;;;;11.25;9.18;;;;;;;25.29;67.63;98567.53;4888231;29;20426;-82
2023/08/29 09:49:10;;;;;;;8.98;7.80;;;;;;;24.81;67.28;98559.69;4888867;29;20051;-82
2023/08/29 09:52:00;;;;;;;10.32;9.02;;;;;;;25.06;67.61;98551.41;4889839;29;20044;-82
2023/08/29 09:54:50;;;;;;;13.05;10.35;;;;;;;25.08;68.01;98552.69;4887638;29;20088;-83
2023/08/29 09:57:37;;;;;;;11.10;9.98;;;;;;;25.18;67.90;98550.88;4888253;29;20092;-82
2023/08/29 10:00:21;;;;;;;11.52;10.32;;;;;;;25.48;67.57;98544.00;4892598;29;20128;-81
2023/08/29 10:03:07;;;;;;;10.65;9.57;;;;;;;25.28;67.31;98533.72;4888537;29;20059;-83
2023/08/29 10:05:55;;;;;;;12.52;10.32;;;;;;;24.79;67.54;98527.00;4886558;29;20044;-82
2023/08/29 10:08:42;;;;;;;12.88;11.13;;;;;;;25.17;66.40;98528.59;4886846;29;20169;-82
2023/08/29 10:11:27;;;;;;;12.32;9.70;;;;;;;24.61;66.20;98512.59;4886788;29;20055;-82
2023/08/29 10:14:12;;;;;;;11.02;9.73;;;;;;;24.97;66.50;98518.31;4893721;29;20100;-82
2023/08/29 10:16:58;;;;;;;13.70;10.43;;;;;;;24.93;65.46;98521.59;4888122;29;20136;-82
2023/08/29 10:19:44;;;;;;;13.45;10.68;;;;;;;25.31;64.76;98527.72;4891891;29;20554;-81
2023/08/29 10:22:30;;;;;;;11.02;9.88;;;;;;;25.06;65.24;98532.59;4882970;29;20093;-82
2023/08/29 10:25:15;;;;;;;11.63;9.75;;;;;;;25.33;65.77;98525.53;4889873;29;20112;-81
2023/08/29 10:28:00;;;;;;;14.13;9.82;;;;;;;25.95;64.57;98530.19;4888179;29;20408;-82
2023/08/29 10:30:51;;;;;;;11.02;9.90;;;;;;;25.76;64.71;98521.56;4884212;29;20040;-82
2023/08/29 10:33:39;;;;;;;11.32;9.85;;;;;;;26.06;64.08;98530.72;4886702;29;20044;-81
2023/08/29 10:36:25;;;;;;;12.02;9.25;;;;;;;25.50;63.57;98525.69;4887202;29;20614;-82
2023/08/29 10:39:13;;;;;;;11.10;9.50;;;;;;;25.95;62.83;98524.03;4887847;29;20610;-82
2023/08/29 10:41:58;;;;;;;10.60;8.85;;;;;;;25.31;63.10;98515.09;4889543;29;20051;-82
2023/08/29 10:44:46;;;;;;;11.65;8.05;;;;;;;25.43;62.51;98517.22;4892550;29;20060;-82
2023/08/29 10:47:31;;;;;;;11.95;8.15;;;;;;;25.45;62.66;98517.72;4888371;29;20180;-82
2023/08/29 10:50:18;;;;;;;12.60;8.20;;;;;;;25.28;63.06;98506.84;4891638;29;20071;-82
2023/08/29 10:53:02;;;;;;;10.35;8.07;;;;;;;25.21;63.46;98508.09;4886811;29;20587;-82
2023/08/29 10:56:07;;;;;;;11.48;7.57;;;;;;;25.77;62.32;98504.31;4888117;29;20047;-82
2023/08/29 10:58:52;;;;;;;10.80;7.60;;;;;;;25.76;62.74;98500.06;4889692;29;20571;-82
2023/08/29 11:01:39;;;;;;;10.82;7.40;;;;;;;25.83;60.70;98505.78;4887723;29;20047;-84
2023/08/29 11:04:23;;;;;;;10.73;8.07;;;;;;;25.89;61.95;98487.63;4892781;29;20176;-84
2023/08/29 11:07:08;;;;;;;9.98;7.40;;;;;;;26.03;61.19;98504.44;4888433;29;20060;-83
2023/08/29 11:10:12;;;;;;;14.15;8.52;;;;;;;25.74;60.47;98503.03;4890131;29;20108;-83
2023/08/29 11:13:09;;;;;;;12.18;8.18;;;;;;;26.32;59.69;98513.88;4887577;29;20109;-83
2023/08/29 11:15:58;;;;;;;11.63;9.40;;;;;;;26.15;61.64;98513.84;4886756;29;20040;-83
2023/08/29 11:18:42;;;;;;;11.20;8.40;;;;;;;25.76;61.63;98510.81;4885793;29;20052;-83
2023/08/29 11:21:26;;;;;;;11.00;8.75;;;;;;;26.61;60.22;98506.34;4886335;29;20052;-83
2023/08/29 11:24:11;;;;;;;13.25;9.10;;;;;;;26.66;60.88;98508.91;4889360;29;20067;-83
2023/08/29 11:26:57;;;;;;;11.07;8.80;;;;;;;26.43;60.94;98498.25;4883355;29;20060;-83
2023/08/29 11:29:41;;;;;;;14.43;8.60;;;;;;;26.06;61.44;98498.44;4881759;29;20104;-83
2023/08/29 11:32:27;;;;;;;12.43;9.73;;;;;;;25.52;61.99;98501.97;4882625;29;20055;-82
2023/08/29 11:35:11;;;;;;;10.90;8.85;;;;;;;25.52;62.42;98501.97;4886605;29;20505;-83
2023/08/29 11:37:55;;;;;;;12.18;9.13;;;;;;;25.36;62.57;98498.06;4885490;29;20518;-82
2023/08/29 11:40:39;;;;;;;13.63;10.07;;;;;;;25.19;64.30;98491.50;4886808;29;20136;-83
2023/08/29 11:43:24;;;;;;;14.48;9.30;;;;;;;25.71;63.59;98487.53;4887541;29;20039;-83
2023/08/29 11:46:08;;;;;;;13.07;11.60;;;;;;;25.05;63.76;98507.63;4884184;29;20093;-82
2023/08/29 11:48:52;;;;;;;17.27;12.07;;;;;;;25.31;64.23;98490.13;4889472;29;20456;-82
2023/08/29 11:51:36;;;;;;;15.02;11.82;;;;;;;24.87;64.59;98485.22;4888021;29;20038;-82
2023/08/29 11:54:45;;;;;;;15.88;12.52;;;;;;;25.56;62.85;98487.94;4886015;29;20052;-82
2023/08/29 11:57:30;;;;;;;18.33;11.85;;;;;;;25.27;63.26;98491.84;4884489;29;20040;-83
2023/08/29 12:00:16;;;;;;;13.13;9.82;;;;;;;25.46;63.62;98497.81;4889575;29;20050;-84
2023/08/29 12:03:00;;;;;;;13.60;10.05;;;;;;;25.48;62.91;98501.00;4885464;29;20040;-83
2023/08/29 12:05:45;;;;;;;15.05;10.50;;;;;;;26.57;62.09;98500.81;4883946;29;20041;-83
2023/08/29 12:08:34;;;;;;;13.85;11.30;;;;;;;26.70;61.55;98492.91;4883229;29;20060;-82
2023/08/29 12:11:18;;;;;;;11.98;10.35;;;;;;;26.29;62.01;98498.38;4884396;29;20112;-82
2023/08/29 12:14:07;;;;;;;12.65;9.98;;;;;;;26.17;61.73;98490.91;4885213;29;20099;-83
2023/08/29 12:16:54;;;;;;;12.02;9.18;;;;;;;26.61;61.75;98493.69;4888884;29;20149;-83
2023/08/29 12:19:38;;;;;;;12.32;8.82;;;;;;;26.19;61.24;98507.53;4886870;29;20043;-83
2023/08/29 12:22:29;;;;;;;13.88;8.52;;;;;;;26.25;61.64;98508.19;4886219;29;20100;-83
2023/08/29 12:25:13;;;;;;;10.15;8.25;;;;;;;25.96;62.68;98512.19;4884558;29;20109;-82
2023/08/29 12:27:57;;;;;;;11.55;8.05;;;;;;;25.67;62.83;98506.19;4885946;29;20048;-83
2023/08/29 12:30:41;;;;;;;11.50;8.07;;;;;;;26.09;63.05;98505.09;4887567;29;20514;-83
2023/08/29 12:33:25;;;;;;;9.93;7.47;;;;;;;25.86;63.14;98499.00;4888358;29;20051;-82
2023/08/29 12:36:09;;;;;;;8.77;7.22;;;;;;;26.20;62.88;98502.94;4884187;29;20052;-83
2023/08/29 12:38:53;;;;;;;10.75;8.43;;;;;;;25.87;62.58;98497.88;4889372;29;20047;-82
2023/08/29 12:41:37;;;;;;;10.25;8.30;;;;;;;25.85;63.12;98497.41;4883142;29;20043;-83
2023/08/29 12:44:21;;;;;;;12.93;8.82;;;;;;;26.09;63.11;98497.81;4883266;29;20048;-83
2023/08/29 12:47:05;;;;;;;10.57;8.18;;;;;;;25.38;62.49;98485.91;4890123;29;20059;-82
2023/08/29 12:49:48;;;;;;;11.80;8.13;;;;;;;25.86;62.66;98482.88;4887860;29;20046;-83
2023/08/29 12:52:32;;;;;;;12.93;8.77;;;;;;;26.28;61.93;98483.34;4881638;29;20048;-82